createdAt,value
2022-11-30T00:00:32.352Z,4.55
2022-11-30T00:01:35.723Z,4.42
2022-11-30T00:02:39.154Z,4.92
2022-11-30T00:03:42.159Z,4.92
2022-11-30T00:04:45.538Z,4.72
2022-11-30T00:05:48.624Z,4.41
2022-11-30T00:06:51.611Z,4.72
2022-11-30T00:07:54.868Z,4.58
2022-11-30T00:08:57.561Z,4.07
2022-11-30T00:10:00.237Z,4.32
2022-11-30T00:11:03.125Z,4.74
2022-11-30T00:12:05.666Z,4.64
2022-11-30T00:13:08.754Z,4.67
2022-11-30T00:14:11.630Z,4.36
2022-11-30T00:15:14.393Z,4.43
2022-11-30T00:16:17.254Z,5.18
2022-11-30T00:17:19.948Z,4.96
2022-11-30T00:18:23.342Z,4.56
2022-11-30T00:19:25.894Z,4.32
2022-11-30T00:20:28.682Z,4.15
2022-11-30T00:21:31.651Z,5.02
2022-11-30T00:22:34.636Z,4.35
2022-11-30T00:23:38.068Z,4.41
2022-11-30T00:24:40.878Z,4.13
2022-11-30T00:25:43.886Z,4.46
2022-11-30T00:26:46.733Z,4.81
2022-11-30T00:27:49.401Z,5.41
2022-11-30T00:28:52.901Z,5.52
2022-11-30T00:29:55.996Z,5.28
2022-11-30T00:30:59.023Z,5.67
2022-11-30T00:32:02.132Z,4.98
2022-11-30T00:33:04.816Z,4.65
2022-11-30T00:34:07.676Z,4.39
2022-11-30T00:35:10.448Z,4.98
2022-11-30T00:36:13.124Z,4.82
2022-11-30T00:37:15.934Z,4.25
2022-11-30T00:38:18.737Z,4.03
2022-11-30T00:39:21.847Z,4.60
2022-11-30T00:40:24.832Z,4.78
2022-11-30T00:41:27.590Z,4.66
2022-11-30T00:42:30.481Z,4.60
2022-11-30T00:43:33.241Z,4.11
2022-11-30T00:44:36.326Z,5.04
2022-11-30T00:45:39.091Z,4.82
2022-11-30T00:46:42.277Z,5.77
2022-11-30T00:47:45.249Z,5.02
2022-11-30T00:48:48.232Z,5.25
2022-11-30T00:49:51.205Z,4.81
2022-11-30T00:50:54.183Z,4.87
2022-11-30T00:51:57.260Z,4.88
2022-11-30T00:52:59.925Z,5.23
2022-11-30T00:54:02.700Z,5.56
2022-11-30T00:55:05.889Z,4.78
2022-11-30T00:56:08.452Z,5.09
2022-11-30T00:57:11.025Z,4.87
2022-11-30T00:58:13.895Z,5.12
2022-11-30T00:59:16.775Z,4.80
2022-11-30T01:00:20.078Z,4.81
2022-11-30T01:01:22.693Z,4.89
2022-11-30T01:02:25.533Z,4.94
2022-11-30T01:03:28.572Z,4.90
2022-11-30T01:04:31.453Z,4.75
2022-11-30T01:05:34.628Z,4.97
2022-11-30T01:06:37.195Z,5.18
2022-11-30T01:07:40.021Z,4.69
2022-11-30T01:08:42.653Z,5.02
2022-11-30T01:09:45.420Z,5.32
2022-11-30T01:10:48.490Z,4.72
2022-11-30T01:11:51.258Z,5.52
2022-11-30T01:12:54.240Z,4.65
2022-11-30T01:13:57.321Z,5.51
2022-11-30T01:14:59.890Z,5.32
2022-11-30T01:16:02.816Z,4.89
2022-11-30T01:17:05.432Z,4.92
2022-11-30T01:18:08.203Z,4.75
2022-11-30T01:19:11.081Z,4.55
2022-11-30T01:20:14.072Z,4.75
2022-11-30T01:21:17.136Z,4.85
2022-11-30T01:22:20.011Z,5.00
2022-11-30T01:23:23.192Z,5.71
2022-11-30T01:24:26.170Z,5.09
2022-11-30T01:25:29.256Z,4.72
2022-11-30T01:26:33.105Z,4.19
2022-11-30T01:27:36.335Z,5.06
2022-11-30T01:28:39.312Z,5.22
2022-11-30T01:29:42.384Z,5.05
2022-11-30T01:30:45.430Z,4.98
2022-11-30T01:31:48.852Z,4.82
2022-11-30T01:32:51.837Z,5.16
2022-11-30T01:33:55.020Z,5.02
2022-11-30T01:34:57.887Z,5.22
2022-11-30T01:36:00.906Z,5.46
2022-11-30T01:37:03.845Z,4.89
2022-11-30T01:38:06.611Z,5.22
2022-11-30T01:39:09.689Z,4.79
2022-11-30T01:40:12.595Z,4.52
2022-11-30T01:41:15.682Z,4.45
2022-11-30T01:42:19.757Z,4.83
2022-11-30T01:43:22.827Z,5.04
2022-11-30T01:44:25.711Z,5.09
2022-11-30T01:45:28.783Z,5.02
2022-11-30T01:46:31.716Z,4.91
2022-11-30T01:47:35.385Z,4.58
2022-11-30T01:48:38.556Z,4.81
2022-11-30T01:49:41.731Z,5.32
2022-11-30T01:50:45.003Z,4.61
2022-11-30T01:51:47.976Z,5.28
2022-11-30T01:52:51.675Z,5.06
2022-11-30T01:53:54.856Z,4.85
2022-11-30T01:54:57.833Z,4.75
2022-11-30T01:56:01.225Z,4.81
2022-11-30T01:57:04.324Z,4.95
2022-11-30T01:58:08.089Z,4.95
2022-11-30T01:59:11.074Z,4.93
2022-11-30T02:00:14.209Z,4.71
2022-11-30T02:01:17.346Z,4.95
2022-11-30T02:02:20.167Z,4.92
2022-11-30T02:03:23.288Z,4.53
2022-11-30T02:04:26.267Z,4.42
2022-11-30T02:05:28.931Z,4.66
2022-11-30T02:06:31.803Z,4.13
2022-11-30T02:07:34.965Z,5.18
2022-11-30T02:08:38.031Z,4.22
2022-11-30T02:09:40.939Z,4.42
2022-11-30T02:10:44.029Z,4.85
2022-11-30T02:11:47.132Z,4.44
2022-11-30T02:12:50.174Z,4.42
2022-11-30T02:13:53.357Z,4.18
2022-11-30T02:14:56.330Z,4.40
2022-11-30T02:15:59.573Z,4.95
2022-11-30T02:17:02.402Z,4.72
2022-11-30T02:18:05.171Z,4.52
2022-11-30T02:19:08.592Z,4.31
2022-11-30T02:20:11.635Z,4.52
2022-11-30T02:21:15.047Z,4.83
2022-11-30T02:22:18.100Z,4.61
2022-11-30T02:23:21.289Z,4.57
2022-11-30T02:24:24.884Z,4.86
2022-11-30T02:25:27.968Z,4.81
2022-11-30T02:26:31.052Z,4.56
2022-11-30T02:27:34.319Z,4.09
2022-11-30T02:28:37.027Z,4.38
2022-11-30T02:29:40.805Z,5.18
2022-11-30T02:30:44.048Z,4.61
2022-11-30T02:31:47.772Z,4.61
2022-11-30T02:32:50.750Z,5.43
2022-11-30T02:33:54.224Z,4.23
2022-11-30T02:34:57.509Z,4.33
2022-11-30T02:36:00.696Z,4.48
2022-11-30T02:37:03.676Z,4.39
2022-11-30T02:38:07.072Z,4.32
2022-11-30T02:39:10.258Z,4.56
2022-11-30T02:40:13.831Z,4.53
2022-11-30T02:41:17.441Z,4.62
2022-11-30T02:42:20.851Z,4.51
2022-11-30T02:43:24.003Z,4.72
2022-11-30T02:44:27.171Z,4.52
2022-11-30T02:45:30.265Z,4.68
2022-11-30T02:46:33.973Z,4.69
2022-11-30T02:47:37.334Z,4.68
2022-11-30T02:48:40.614Z,4.45
2022-11-30T02:49:43.905Z,4.34
2022-11-30T02:50:47.023Z,4.19
2022-11-30T02:51:50.781Z,4.40
2022-11-30T02:52:54.055Z,4.40
2022-11-30T02:53:57.268Z,4.71
2022-11-30T02:55:00.634Z,4.93
2022-11-30T02:56:04.843Z,4.55
2022-11-30T02:57:07.807Z,4.72
2022-11-30T02:58:11.122Z,4.63
2022-11-30T02:59:14.389Z,4.20
2022-11-30T03:00:18.610Z,4.66
2022-11-30T03:01:22.158Z,4.51
2022-11-30T03:02:25.568Z,4.50
2022-11-30T03:03:28.578Z,4.48
2022-11-30T03:04:31.622Z,4.73
2022-11-30T03:05:34.593Z,4.33
2022-11-30T03:06:38.392Z,4.10
2022-11-30T03:07:41.527Z,4.25
2022-11-30T03:08:44.561Z,4.42
2022-11-30T03:09:47.536Z,4.31
2022-11-30T03:10:50.512Z,4.72
2022-11-30T03:11:54.101Z,4.35
2022-11-30T03:12:57.276Z,4.66
2022-11-30T03:14:00.683Z,4.41
2022-11-30T03:15:03.863Z,5.18
2022-11-30T03:16:07.106Z,4.85
2022-11-30T03:17:10.011Z,4.88
2022-11-30T03:18:12.784Z,4.75
2022-11-30T03:19:15.759Z,4.35
2022-11-30T03:20:18.850Z,4.48
2022-11-30T03:21:21.827Z,4.25
2022-11-30T03:22:24.923Z,4.08
2022-11-30T03:23:28.394Z,4.42
2022-11-30T03:24:31.257Z,4.29
2022-11-30T03:25:35.464Z,4.68
2022-11-30T03:26:38.377Z,4.69
2022-11-30T03:27:42.145Z,4.29
2022-11-30T03:28:45.535Z,4.72
2022-11-30T03:29:48.926Z,4.81
2022-11-30T03:30:52.142Z,4.81
2022-11-30T03:31:55.491Z,5.11
2022-11-30T03:32:59.903Z,5.02
2022-11-30T03:34:03.013Z,4.49
2022-11-30T03:35:05.863Z,4.26
2022-11-30T03:36:09.446Z,4.93
2022-11-30T03:37:12.429Z,4.58
2022-11-30T03:38:15.900Z,3.81
2022-11-30T03:39:19.392Z,3.95
2022-11-30T03:40:22.417Z,3.87
2022-11-30T03:41:32.420Z,4.52
2022-11-30T03:42:37.741Z,4.34
2022-11-30T03:43:41.041Z,4.46
2022-11-30T03:44:44.387Z,4.45
2022-11-30T03:45:47.804Z,4.09
2022-11-30T03:46:54.145Z,4.11
2022-11-30T03:47:57.446Z,4.19
2022-11-30T03:49:01.662Z,4.33
2022-11-30T03:50:05.131Z,4.00
2022-11-30T03:51:08.538Z,4.46
2022-11-30T03:52:12.628Z,4.02
2022-11-30T03:53:15.504Z,4.40
2022-11-30T03:54:18.787Z,4.12
2022-11-30T03:55:22.275Z,4.34
2022-11-30T03:56:25.427Z,3.97
2022-11-30T03:57:28.329Z,4.09
2022-11-30T03:58:31.159Z,4.07
2022-11-30T03:59:34.295Z,3.84
2022-11-30T04:00:37.965Z,4.06
2022-11-30T04:01:41.386Z,3.91
2022-11-30T04:02:45.168Z,3.62
2022-11-30T04:03:48.103Z,4.34
2022-11-30T04:04:51.416Z,3.99
2022-11-30T04:05:54.727Z,3.97
2022-11-30T04:06:58.095Z,3.83
2022-11-30T04:08:01.413Z,3.75
2022-11-30T04:09:04.558Z,3.98
2022-11-30T04:10:08.824Z,3.91
2022-11-30T04:11:12.047Z,3.67
2022-11-30T04:12:15.667Z,4.05
2022-11-30T04:13:18.624Z,4.43
2022-11-30T04:14:21.843Z,4.61
2022-11-30T04:15:24.773Z,4.44
2022-11-30T04:16:28.513Z,3.84
2022-11-30T04:17:31.954Z,4.01
2022-11-30T04:18:34.948Z,3.87
2022-11-30T04:19:38.958Z,3.82
2022-11-30T04:20:42.114Z,3.90
2022-11-30T04:21:45.612Z,3.78
2022-11-30T04:22:49.216Z,3.61
2022-11-30T04:23:52.087Z,3.69
2022-11-30T04:24:55.358Z,3.59
2022-11-30T04:25:59.571Z,4.35
2022-11-30T04:27:02.757Z,4.11
2022-11-30T04:28:06.146Z,3.69
2022-11-30T04:29:09.546Z,3.45
2022-11-30T04:30:12.401Z,3.71
2022-11-30T04:31:16.022Z,3.62
2022-11-30T04:32:19.995Z,3.41
2022-11-30T04:33:23.477Z,3.49
2022-11-30T04:34:26.764Z,3.76
2022-11-30T04:35:30.577Z,3.98
2022-11-30T04:36:34.138Z,3.98
2022-11-30T04:37:37.142Z,4.09
2022-11-30T04:38:42.137Z,3.72
2022-11-30T04:39:45.649Z,3.71
2022-11-30T04:40:48.718Z,3.77
2022-11-30T04:41:51.996Z,4.02
2022-11-30T04:42:55.591Z,3.91
2022-11-30T04:43:59.103Z,3.65
2022-11-30T04:45:02.266Z,3.92
2022-11-30T04:46:05.972Z,3.83
2022-11-30T04:47:09.680Z,3.83
2022-11-30T04:48:13.457Z,3.42
2022-11-30T04:49:16.745Z,3.65
2022-11-30T04:50:19.723Z,4.09
2022-11-30T04:51:23.498Z,4.03
2022-11-30T04:52:27.192Z,3.81
2022-11-30T04:53:30.586Z,3.88
2022-11-30T04:54:33.771Z,4.08
2022-11-30T04:55:36.841Z,3.98
2022-11-30T04:56:40.051Z,3.93
2022-11-30T04:57:43.727Z,4.06
2022-11-30T04:58:47.939Z,3.59
2022-11-30T04:59:50.909Z,4.08
2022-11-30T05:00:59.940Z,4.23
2022-11-30T05:02:03.035Z,4.08
2022-11-30T05:03:05.995Z,3.69
2022-11-30T05:04:12.223Z,3.65
2022-11-30T05:05:15.027Z,3.91
2022-11-30T05:06:18.190Z,3.67
2022-11-30T05:07:21.656Z,3.60
2022-11-30T05:08:25.683Z,4.11
2022-11-30T05:09:28.961Z,3.69
2022-11-30T05:10:31.738Z,3.67
2022-11-30T05:11:35.244Z,4.06
2022-11-30T05:12:38.404Z,4.01
2022-11-30T05:13:42.436Z,4.30
2022-11-30T05:14:46.109Z,4.14
2022-11-30T05:15:49.790Z,3.96
2022-11-30T05:16:55.952Z,3.88
2022-11-30T05:17:59.427Z,3.84
2022-11-30T05:19:03.138Z,3.90
2022-11-30T05:20:06.306Z,4.15
2022-11-30T05:21:09.418Z,4.54
2022-11-30T05:22:12.393Z,4.26
2022-11-30T05:23:18.135Z,4.12
2022-11-30T05:24:21.818Z,4.11
2022-11-30T05:25:25.194Z,3.72
2022-11-30T05:26:28.501Z,3.63
2022-11-30T05:27:31.442Z,4.18
2022-11-30T05:28:34.529Z,3.98
2022-11-30T05:29:38.030Z,3.78
2022-11-30T05:30:43.985Z,3.50
2022-11-30T05:31:55.855Z,3.60
2022-11-30T05:32:59.025Z,4.13
2022-11-30T05:34:02.716Z,4.48
2022-11-30T05:35:07.188Z,4.71
2022-11-30T05:36:22.608Z,3.89
2022-11-30T05:37:27.215Z,3.88
2022-11-30T05:38:30.300Z,3.96
2022-11-30T05:39:35.840Z,4.15
2022-11-30T05:40:43.657Z,4.00
2022-11-30T05:41:55.724Z,3.97
2022-11-30T05:44:21.584Z,4.33
2022-11-30T05:45:29.068Z,4.42
2022-11-30T05:46:32.090Z,4.26
2022-11-30T05:47:35.797Z,4.57
2022-11-30T05:48:38.669Z,4.54
2022-11-30T05:49:43.613Z,4.09
2022-11-30T05:50:58.503Z,4.47
2022-11-30T05:52:08.295Z,4.49
2022-11-30T05:53:18.129Z,4.59
2022-11-30T05:54:25.522Z,4.50
2022-11-30T05:55:42.465Z,4.86
2022-11-30T05:56:51.608Z,4.65
2022-11-30T06:00:35.037Z,3.94
2022-11-30T06:01:41.364Z,4.43
2022-11-30T06:02:47.366Z,3.91
2022-11-30T06:03:50.569Z,4.14
2022-11-30T06:04:53.628Z,4.72
2022-11-30T06:05:57.022Z,4.99
2022-11-30T06:07:08.697Z,4.69
2022-11-30T06:08:12.189Z,4.55
2022-11-30T06:09:15.704Z,4.25
2022-11-30T06:10:19.828Z,4.75
2022-11-30T06:11:24.816Z,4.45
2022-11-30T06:12:27.898Z,4.31
2022-11-30T06:13:35.580Z,4.48
2022-11-30T06:14:38.860Z,4.27
2022-11-30T06:15:42.554Z,4.73
2022-11-30T06:16:45.895Z,4.39
2022-11-30T06:17:49.033Z,4.13
2022-11-30T06:18:52.548Z,4.40
2022-11-30T06:20:01.641Z,4.89
2022-11-30T06:21:07.600Z,4.48
2022-11-30T06:22:17.435Z,4.36
2022-11-30T06:24:41.405Z,4.49
2022-11-30T06:27:06.007Z,4.45
2022-11-30T06:28:09.170Z,4.60
2022-11-30T06:29:15.956Z,4.65
2022-11-30T06:30:20.175Z,4.53
2022-11-30T06:31:29.139Z,4.19
2022-11-30T06:32:32.558Z,4.23
2022-11-30T06:33:36.029Z,4.06
2022-11-30T06:34:56.446Z,3.89
2022-11-30T06:36:02.786Z,4.00
2022-11-30T06:37:06.099Z,4.61
2022-11-30T06:38:09.337Z,4.66
2022-11-30T06:39:12.431Z,4.22
2022-11-30T06:40:15.706Z,4.14
2022-11-30T06:41:18.674Z,4.21
2022-11-30T06:43:50.253Z,4.31
2022-11-30T06:44:53.520Z,4.17
2022-11-30T06:47:21.935Z,4.90
2022-11-30T06:48:29.490Z,4.45
2022-11-30T06:49:32.770Z,4.14
2022-11-30T06:50:46.876Z,4.18
2022-11-30T06:51:46.737Z,4.36
2022-11-30T06:52:55.586Z,4.17
2022-11-30T06:53:59.533Z,4.31
2022-11-30T06:56:30.460Z,4.03
2022-11-30T06:57:37.138Z,4.41
2022-11-30T06:58:44.307Z,4.41
2022-11-30T06:59:47.586Z,4.45
2022-11-30T07:00:53.079Z,4.22
2022-11-30T07:01:57.035Z,4.43
2022-11-30T07:03:00.714Z,4.29
2022-11-30T07:04:06.203Z,3.80
2022-11-30T07:05:09.339Z,4.23
2022-11-30T07:06:22.673Z,4.33
2022-11-30T07:07:27.506Z,4.10
2022-11-30T07:08:35.788Z,3.86
2022-11-30T07:09:41.644Z,4.07
2022-11-30T07:10:44.640Z,4.06
2022-11-30T07:11:51.010Z,4.25
2022-11-30T07:12:54.162Z,4.51
2022-11-30T07:13:57.206Z,4.63
2022-11-30T07:15:00.932Z,4.38
2022-11-30T07:16:04.097Z,4.41
2022-11-30T07:17:09.927Z,4.35
2022-11-30T07:18:13.745Z,4.15
2022-11-30T07:19:26.142Z,4.01
2022-11-30T07:20:29.027Z,4.11
2022-11-30T07:21:35.773Z,4.05
2022-11-30T07:22:41.627Z,4.07
2022-11-30T07:23:56.902Z,4.48
2022-11-30T07:27:49.592Z,4.59
2022-11-30T07:28:58.993Z,4.31
2022-11-30T07:30:04.403Z,4.42
2022-11-30T07:31:14.815Z,4.79
2022-11-30T07:32:29.998Z,4.50
2022-11-30T07:33:36.828Z,4.42
2022-11-30T07:34:50.976Z,4.38
2022-11-30T07:35:53.820Z,4.60
2022-11-30T07:41:00.171Z,4.55
2022-11-30T07:42:05.622Z,4.57
2022-11-30T07:43:08.851Z,4.43
2022-11-30T07:44:22.826Z,4.48
2022-11-30T07:48:16.776Z,4.99
2022-11-30T07:54:53.011Z,4.70
2022-11-30T07:55:59.470Z,4.66
2022-11-30T07:59:42.817Z,4.92
2022-11-30T08:02:13.163Z,4.76
2022-11-30T08:08:39.728Z,5.03
2022-11-30T08:13:49.287Z,4.84
2022-11-30T08:16:22.189Z,5.04
2022-11-30T08:17:41.396Z,4.85
2022-11-30T08:18:52.005Z,4.98
2022-11-30T08:26:40.044Z,4.58
2022-11-30T08:29:18.269Z,4.84
2022-11-30T08:33:02.910Z,4.58
2022-11-30T08:34:13.467Z,4.54
2022-11-30T08:35:17.984Z,4.82
2022-11-30T08:37:46.396Z,4.93
2022-11-30T08:38:50.264Z,4.98
2022-11-30T08:41:23.167Z,4.51
2022-11-30T08:42:36.506Z,4.58
2022-11-30T08:43:39.470Z,4.65
2022-11-30T08:44:46.318Z,4.45
2022-11-30T08:46:11.422Z,4.69
2022-11-30T08:47:09.747Z,4.93
2022-11-30T08:51:08.996Z,4.80
2022-11-30T08:53:31.342Z,4.65
2022-11-30T08:56:07.930Z,4.62
2022-11-30T08:57:13.779Z,4.88
2022-11-30T08:58:23.816Z,5.24
2022-11-30T08:59:28.042Z,4.74
2022-11-30T09:03:05.977Z,4.61
2022-11-30T09:04:12.155Z,4.75
2022-11-30T09:05:25.696Z,4.62
2022-11-30T09:06:29.475Z,4.33
2022-11-30T09:07:39.478Z,4.46
2022-11-30T09:08:59.499Z,4.58
2022-11-30T09:11:23.172Z,4.52
2022-11-30T09:12:33.917Z,4.83
2022-11-30T09:13:37.212Z,4.91
2022-11-30T09:14:42.143Z,5.06
2022-11-30T09:15:45.548Z,4.88
2022-11-30T09:16:50.249Z,4.06
2022-11-30T09:17:55.057Z,4.63
2022-11-30T09:19:01.206Z,5.05
2022-11-30T09:20:08.764Z,5.32
2022-11-30T09:21:16.698Z,4.78
2022-11-30T09:22:20.175Z,4.67
2022-11-30T09:23:23.963Z,4.62
2022-11-30T09:24:27.052Z,4.14
2022-11-30T09:25:31.255Z,4.56
2022-11-30T09:26:44.887Z,4.95
2022-11-30T09:29:11.350Z,5.15
2022-11-30T09:30:14.509Z,5.07
2022-11-30T09:32:49.305Z,4.56
2022-11-30T09:33:55.481Z,4.75
2022-11-30T09:34:58.487Z,4.94
2022-11-30T09:36:10.659Z,4.92
2022-11-30T09:37:13.776Z,4.28
2022-11-30T09:38:23.358Z,5.26
2022-11-30T09:39:28.810Z,4.99
2022-11-30T09:40:35.514Z,5.01
2022-11-30T09:41:36.813Z,4.72
2022-11-30T09:42:42.270Z,4.41
2022-11-30T09:43:45.530Z,4.56
2022-11-30T09:44:49.153Z,4.72
2022-11-30T09:45:53.981Z,5.00
2022-11-30T09:48:17.510Z,4.86
2022-11-30T09:49:28.460Z,5.22
2022-11-30T09:50:35.544Z,5.11
2022-11-30T09:51:52.746Z,5.23
2022-11-30T09:52:56.562Z,5.07
2022-11-30T09:53:59.859Z,5.02
2022-11-30T09:55:14.481Z,4.69
2022-11-30T09:56:22.684Z,4.96
2022-11-30T09:58:48.093Z,4.92
2022-11-30T09:59:54.182Z,5.04
2022-11-30T10:01:08.917Z,4.76
2022-11-30T10:06:04.738Z,4.90
2022-11-30T10:07:12.824Z,4.96
2022-11-30T10:10:57.613Z,5.28
2022-11-30T10:14:49.857Z,4.90
2022-11-30T10:15:53.303Z,5.30
2022-11-30T10:16:58.695Z,4.88
2022-11-30T10:18:05.230Z,5.57
2022-11-30T10:19:19.066Z,5.29
2022-11-30T10:20:25.145Z,5.08
2022-11-30T10:22:53.795Z,4.71
2022-11-30T10:23:56.999Z,4.78
2022-11-30T10:26:20.338Z,5.57
2022-11-30T10:27:25.274Z,5.17
2022-11-30T10:28:48.011Z,5.03
2022-11-30T10:29:56.597Z,4.85
2022-11-30T10:32:20.172Z,4.69
2022-11-30T10:36:06.930Z,4.86
2022-11-30T10:37:16.425Z,4.66
2022-11-30T10:38:33.058Z,4.74
2022-11-30T10:39:37.432Z,4.56
2022-11-30T10:40:46.259Z,4.88
2022-11-30T10:41:58.603Z,5.16
2022-11-30T10:43:01.760Z,5.26
2022-11-30T10:44:06.689Z,4.69
2022-11-30T10:45:10.061Z,4.56
2022-11-30T10:46:17.422Z,4.93
2022-11-30T10:47:32.829Z,5.04
2022-11-30T10:48:36.065Z,4.75
2022-11-30T10:49:41.324Z,4.94
2022-11-30T10:50:49.913Z,5.14
2022-11-30T10:51:55.029Z,5.03
2022-11-30T10:53:00.670Z,4.77
2022-11-30T10:54:04.078Z,5.61
2022-11-30T10:55:07.346Z,4.50
2022-11-30T10:56:10.855Z,4.76
2022-11-30T10:57:14.221Z,4.99
2022-11-30T10:59:41.064Z,5.24
2022-11-30T11:00:45.790Z,5.04
2022-11-30T11:01:55.671Z,4.50
2022-11-30T11:03:05.491Z,4.30
2022-11-30T11:04:08.455Z,4.76
2022-11-30T11:05:11.518Z,4.93
2022-11-30T11:06:15.221Z,5.15
2022-11-30T11:08:42.381Z,5.21
2022-11-30T11:09:50.741Z,4.94
2022-11-30T11:10:53.951Z,5.36
2022-11-30T11:11:57.030Z,4.97
2022-11-30T11:13:01.438Z,5.08
2022-11-30T11:14:13.635Z,4.66
2022-11-30T11:15:16.716Z,4.75
2022-11-30T11:16:19.924Z,4.28
2022-11-30T11:17:23.376Z,4.07
2022-11-30T11:18:26.664Z,4.44
2022-11-30T11:19:30.459Z,5.08
2022-11-30T11:21:58.839Z,4.93
2022-11-30T11:23:01.919Z,4.86
2022-11-30T11:24:04.798Z,4.76
2022-11-30T11:25:17.124Z,4.40
2022-11-30T11:26:21.816Z,4.84
2022-11-30T11:27:32.915Z,4.99
2022-11-30T11:31:22.897Z,5.04
2022-11-30T11:32:28.192Z,4.63
2022-11-30T11:33:31.787Z,4.43
2022-11-30T11:34:39.566Z,4.44
2022-11-30T11:35:47.369Z,4.52
2022-11-30T11:36:54.032Z,4.60
2022-11-30T11:38:00.086Z,5.10
2022-11-30T11:39:11.655Z,4.96
2022-11-30T11:40:15.241Z,4.76
2022-11-30T11:41:18.637Z,4.90
2022-11-30T11:42:25.936Z,4.39
2022-11-30T11:44:50.133Z,4.63
2022-11-30T11:46:07.257Z,4.28
2022-11-30T11:48:31.193Z,5.10
2022-11-30T11:49:34.895Z,4.34
2022-11-30T11:51:54.248Z,4.39
2022-11-30T11:52:57.835Z,4.46
2022-11-30T11:54:01.172Z,4.22
2022-11-30T11:55:09.433Z,4.65
2022-11-30T11:56:13.120Z,4.88
2022-11-30T11:57:25.727Z,4.75
2022-11-30T11:59:49.766Z,4.34
2022-11-30T12:01:38.804Z,4.41
2022-11-30T12:02:14.995Z,4.28
2022-11-30T12:03:21.058Z,4.65
2022-11-30T12:04:24.774Z,4.16
2022-11-30T12:06:50.153Z,4.68
2022-11-30T12:07:56.747Z,4.57
2022-11-30T12:08:59.687Z,4.50
2022-11-30T12:10:03.328Z,4.24
2022-11-30T12:11:06.566Z,4.66
2022-11-30T12:12:10.584Z,4.41
2022-11-30T12:13:13.853Z,4.18
2022-11-30T12:14:17.250Z,4.78
2022-11-30T12:15:20.534Z,4.42
2022-11-30T12:16:24.636Z,4.65
2022-11-30T12:17:30.880Z,4.13
2022-11-30T12:18:39.706Z,3.88
2022-11-30T12:19:42.776Z,4.13
2022-11-30T12:20:46.376Z,4.17
2022-11-30T12:21:49.156Z,4.28
2022-11-30T12:22:51.909Z,4.58
2022-11-30T12:23:56.937Z,4.48
2022-11-30T12:25:05.506Z,4.34
2022-11-30T12:26:09.560Z,4.53
2022-11-30T12:27:12.830Z,4.63
2022-11-30T12:28:20.969Z,3.84
2022-11-30T12:30:35.276Z,4.11
2022-11-30T12:31:38.222Z,4.33
2022-11-30T12:32:41.222Z,4.28
2022-11-30T12:34:02.388Z,4.38
2022-11-30T12:35:07.468Z,4.40
2022-11-30T12:36:10.434Z,4.18
2022-11-30T12:37:16.503Z,4.18
2022-11-30T12:38:19.779Z,4.29
2022-11-30T12:39:23.382Z,4.41
2022-11-30T12:40:26.233Z,4.21
2022-11-30T12:41:34.015Z,3.92
2022-11-30T12:42:39.464Z,4.05
2022-11-30T12:43:42.643Z,4.39
2022-11-30T12:44:45.941Z,4.34
2022-11-30T12:45:49.550Z,4.38
2022-11-30T12:46:55.221Z,4.30
2022-11-30T12:47:58.244Z,4.43
2022-11-30T12:49:01.376Z,4.34
2022-11-30T12:50:05.032Z,4.22
2022-11-30T12:51:10.251Z,4.14
2022-11-30T12:52:13.744Z,4.62
2022-11-30T12:53:16.824Z,4.13
2022-11-30T12:54:20.208Z,4.41
2022-11-30T12:55:23.582Z,4.26
2022-11-30T12:56:26.764Z,4.64
2022-11-30T12:57:29.949Z,4.65
2022-11-30T12:58:33.052Z,4.22
2022-11-30T12:59:36.617Z,3.97
2022-11-30T13:00:39.894Z,4.28
2022-11-30T13:01:42.772Z,4.91
2022-11-30T13:02:45.874Z,5.09
2022-11-30T13:03:49.054Z,5.08
2022-11-30T13:04:58.083Z,4.95
2022-11-30T13:05:56.953Z,4.47
2022-11-30T13:07:00.532Z,4.83
2022-11-30T13:08:03.578Z,4.13
2022-11-30T13:09:06.997Z,4.84
2022-11-30T13:10:09.975Z,4.35
2022-11-30T13:11:13.356Z,4.17
2022-11-30T13:12:16.238Z,4.33
2022-11-30T13:13:19.820Z,4.82
2022-11-30T13:14:22.904Z,4.71
2022-11-30T13:15:26.200Z,4.43
2022-11-30T13:16:29.406Z,4.11
2022-11-30T13:17:43.889Z,4.40
2022-11-30T13:18:46.996Z,4.71
2022-11-30T13:19:49.978Z,4.67
2022-11-30T13:20:53.782Z,4.52
2022-11-30T13:22:00.954Z,4.74
2022-11-30T13:23:04.542Z,4.56
2022-11-30T13:24:08.132Z,4.20
2022-11-30T13:25:34.036Z,4.41
2022-11-30T13:27:44.982Z,4.25
2022-11-30T13:28:49.420Z,4.64
2022-11-30T13:29:57.938Z,4.52
2022-11-30T13:31:00.972Z,4.53
2022-11-30T13:32:03.999Z,4.68
2022-11-30T13:33:06.881Z,4.28
2022-11-30T13:34:09.859Z,4.59
2022-11-30T13:35:12.826Z,4.32
2022-11-30T13:36:17.960Z,5.33
2022-11-30T13:37:25.822Z,4.98
2022-11-30T13:38:40.801Z,4.17
2022-11-30T13:39:41.267Z,4.71
2022-11-30T13:40:43.996Z,4.60
2022-11-30T13:41:46.765Z,4.19
2022-11-30T13:42:51.965Z,3.69
2022-11-30T13:43:54.451Z,4.37
2022-11-30T13:44:57.851Z,4.28
2022-11-30T13:46:00.648Z,4.42
2022-11-30T13:47:03.455Z,4.31
2022-11-30T13:48:08.409Z,4.50
2022-11-30T13:49:11.186Z,4.61
2022-11-30T13:50:14.159Z,4.49
2022-11-30T13:51:17.446Z,4.62
2022-11-30T13:52:23.524Z,4.60
2022-11-30T13:53:33.876Z,4.62
2022-11-30T13:54:37.034Z,4.58
2022-11-30T13:55:39.695Z,4.49
2022-11-30T13:56:48.699Z,4.61
2022-11-30T13:57:49.454Z,4.68
2022-11-30T13:58:52.422Z,4.57
2022-11-30T13:59:56.928Z,4.33
2022-11-30T14:00:59.966Z,4.15
2022-11-30T14:02:03.123Z,4.72
2022-11-30T14:03:06.063Z,4.60
2022-11-30T14:04:09.041Z,4.09
2022-11-30T14:05:12.321Z,4.07
2022-11-30T14:06:15.497Z,4.44
2022-11-30T14:07:22.286Z,4.50
2022-11-30T14:08:28.840Z,4.53
2022-11-30T14:09:31.906Z,4.69
2022-11-30T14:10:35.211Z,4.35
2022-11-30T14:11:38.785Z,4.45
2022-11-30T14:12:41.660Z,4.32
2022-11-30T14:13:45.049Z,4.67
2022-11-30T14:14:48.150Z,4.59
2022-11-30T14:15:51.458Z,4.62
2022-11-30T14:16:54.590Z,4.00
2022-11-30T14:17:58.399Z,4.57
2022-11-30T14:19:01.783Z,4.49
2022-11-30T14:21:37.612Z,4.65
2022-11-30T14:23:56.693Z,4.95
2022-11-30T14:24:59.778Z,4.75
2022-11-30T14:27:10.866Z,4.52
2022-11-30T14:28:25.596Z,4.15
2022-11-30T14:29:28.776Z,4.65
2022-11-30T14:30:32.882Z,4.29
2022-11-30T14:31:38.603Z,4.10
2022-11-30T14:32:41.503Z,4.47
2022-11-30T14:33:44.592Z,4.85
2022-11-30T14:34:50.249Z,4.31
2022-11-30T14:35:53.814Z,4.47
2022-11-30T14:36:56.590Z,4.42
2022-11-30T14:37:59.151Z,3.67
2022-11-30T14:39:02.231Z,4.11
2022-11-30T14:40:05.824Z,4.29
2022-11-30T14:41:09.015Z,4.07
2022-11-30T14:42:12.497Z,4.32
2022-11-30T14:44:35.856Z,4.52
2022-11-30T14:45:38.626Z,4.24
2022-11-30T14:46:41.684Z,4.09
2022-11-30T14:47:48.108Z,4.33
2022-11-30T14:48:49.096Z,4.35
2022-11-30T14:49:52.375Z,4.09
2022-11-30T14:50:56.082Z,4.20
2022-11-30T14:52:02.134Z,4.38
2022-11-30T14:53:05.514Z,4.57
2022-11-30T14:54:09.210Z,4.53
2022-11-30T14:55:12.696Z,4.44
2022-11-30T14:56:16.081Z,4.37
2022-11-30T14:57:19.669Z,3.90
2022-11-30T14:58:27.367Z,4.12
2022-11-30T14:59:30.742Z,4.42
2022-11-30T15:00:39.357Z,4.24
2022-11-30T15:01:43.224Z,4.21
2022-11-30T15:02:46.044Z,4.66
2022-11-30T15:03:55.030Z,4.49
2022-11-30T15:05:01.301Z,4.45
2022-11-30T15:06:05.612Z,4.62
2022-11-30T15:07:10.734Z,4.23
2022-11-30T15:08:13.703Z,4.09
2022-11-30T15:09:16.890Z,3.92
2022-11-30T15:10:23.906Z,4.40
2022-11-30T15:11:24.994Z,4.57
2022-11-30T15:12:27.970Z,4.40
2022-11-30T15:13:31.979Z,4.79
2022-11-30T15:14:35.254Z,4.65
2022-11-30T15:15:41.753Z,4.50
2022-11-30T15:16:42.392Z,4.44
2022-11-30T15:17:45.642Z,4.61
2022-11-30T15:18:48.698Z,4.40
2022-11-30T15:19:51.704Z,4.34
2022-11-30T15:20:56.504Z,4.34
2022-11-30T15:21:59.478Z,4.17
2022-11-30T15:23:02.863Z,3.93
2022-11-30T15:24:06.316Z,4.26
2022-11-30T15:25:09.433Z,4.59
2022-11-30T15:26:12.557Z,4.32
2022-11-30T15:27:15.699Z,4.32
2022-11-30T15:28:18.783Z,4.52
2022-11-30T15:29:22.064Z,4.25
2022-11-30T15:30:24.925Z,4.42
2022-11-30T15:31:28.298Z,4.19
2022-11-30T15:32:31.189Z,4.33
2022-11-30T15:33:34.376Z,4.44
2022-11-30T15:34:37.566Z,4.12
2022-11-30T15:36:12.163Z,4.16
2022-11-30T15:38:00.820Z,4.54
2022-11-30T15:39:04.014Z,4.81
2022-11-30T15:40:06.887Z,4.55
2022-11-30T15:41:09.967Z,3.93
2022-11-30T15:42:13.351Z,4.14
2022-11-30T15:43:16.330Z,3.98
2022-11-30T15:44:19.299Z,3.92
2022-11-30T15:45:22.580Z,4.21
2022-11-30T15:46:25.716Z,4.00
2022-11-30T15:47:28.838Z,4.15
2022-11-30T15:48:31.926Z,3.53
2022-11-30T15:49:35.313Z,4.25
2022-11-30T15:50:38.296Z,4.32
2022-11-30T15:51:41.264Z,4.28
2022-11-30T15:52:44.379Z,4.38
2022-11-30T15:53:47.229Z,4.27
2022-11-30T15:54:50.328Z,4.35
2022-11-30T15:55:53.268Z,4.35
2022-11-30T15:56:56.250Z,4.40
2022-11-30T15:57:59.444Z,4.06
2022-11-30T15:59:04.969Z,4.00
2022-11-30T16:00:07.958Z,4.35
2022-11-30T16:01:11.455Z,3.95
2022-11-30T16:02:14.829Z,3.98
2022-11-30T16:03:17.793Z,4.51
2022-11-30T16:04:20.782Z,4.01
2022-11-30T16:05:24.175Z,4.27
2022-11-30T16:06:27.031Z,4.01
2022-11-30T16:07:30.214Z,3.97